Time,TemperatureF,DewpointF,PressureIn,WindDirection,WindDirectionDegrees,WindSpeedMPH,WindSpeedGustMPH,Humidity,HourlyPrecipIn,Conditions,Clouds,dailyrainin,SoftwareType,DateUTC
2013-11-29 00:05:00,53.4,36.7,29.94,North,-999,0.0,0.0,53,0.00,,,-99.99,FreeWX-Wi 1.01,2013-11-29 08:05:00,
2013-11-29 00:15:00,53.2,36.5,29.94,North,-999,0.0,0.0,53,0.00,,,-99.99,FreeWX-Wi 1.01,2013-11-29 08:15:00,
2013-11-29 00:25:00,53.1,36.3,29.97,North,-999,0.0,0.0,53,0.00,,,-99.99,FreeWX-Wi 1.01,2013-11-29 08:25:00,
2013-11-29 00:35:00,52.9,36.7,29.94,North,-999,0.0,0.0,54,0.00,,,-99.99,FreeWX-Wi 1.01,2013-11-29 08:35:00,
2013-11-29 00:45:00,52.9,37.2,29.94,North,-999,0.0,0.0,55,0.00,,,-99.99,FreeWX-Wi 1.01,2013-11-29 08:45:00,
2013-11-29 00:55:00,52.7,37.0,29.97,North,-999,0.0,0.0,55,0.00,,,-99.99,FreeWX-Wi 1.01,2013-11-29 08:55:00,
2013-11-29 01:05:00,52.5,37.2,29.97,North,-999,0.0,0.0,56,0.00,,,-99.99,FreeWX-Wi 1.01,2013-11-29 09:05:00,
2013-11-29 01:15:00,52.3,37.0,29.97,North,-999,0.0,0.0,56,0.00,,,-99.99,FreeWX-Wi 1.01,2013-11-29 09:15:00,
2013-11-29 01:25:00,52.2,37.4,29.97,North,-999,0.0,0.0,57,0.00,,,-99.99,FreeWX-Wi 1.01,2013-11-29 09:25:00,
2013-11-29 01:35:00,52.2,37.4,29.97,North,-999,0.0,0.0,57,0.00,,,-99.99,FreeWX-Wi 1.01,2013-11-29 09:35:00,
2013-11-29 01:45:00,52.3,37.9,29.97,North,-999,0.0,0.0,58,0.00,,,-99.99,FreeWX-Wi 1.01,2013-11-29 09:45:00,
2013-11-29 01:55:00,52.3,38.5,29.97,North,-999,0.0,0.0,59,0.00,,,-99.99,FreeWX-Wi 1.01,2013-11-29 09:55:00,
2013-11-29 02:05:00,52.0,38.5,29.97,North,-999,0.0,0.0,60,0.00,,,-99.99,FreeWX-Wi 1.01,2013-11-29 10:05:00,
2013-11-29 02:15:00,51.8,38.8,29.97,North,-999,0.0,0.0,61,0.00,,,-99.99,FreeWX-Wi 1.01,2013-11-29 10:15:00,
2013-11-29 02:25:00,51.8,38.8,29.97,North,-999,0.0,0.0,61,0.00,,,-99.99,FreeWX-Wi 1.01,2013-11-29 10:25:00,
2013-11-29 02:35:00,51.6,39.0,29.97,North,-999,0.0,0.0,62,0.00,,,-99.99,FreeWX-Wi 1.01,2013-11-29 10:35:00,
2013-11-29 02:45:00,51.6,39.4,29.97,North,-999,0.0,0.0,63,0.00,,,-99.99,FreeWX-Wi 1.01,2013-11-29 10:45:00,
2013-11-29 02:55:00,51.6,39.4,29.97,North,-999,0.0,0.0,63,0.00,,,-99.99,FreeWX-Wi 1.01,2013-11-29 10:55:00,
2013-11-29 03:05:00,51.6,39.9,29.97,North,-999,0.0,0.0,64,0.00,,,-99.99,FreeWX-Wi 1.01,2013-11-29 11:05:00,
2013-11-29 03:15:00,51.3,39.6,29.97,North,-999,0.0,0.0,64,0.00,,,-99.99,FreeWX-Wi 1.01,2013-11-29 11:15:00,
2013-11-29 03:25:00,51.3,39.6,29.97,North,-999,0.0,0.0,64,0.00,,,-99.99,FreeWX-Wi 1.01,2013-11-29 11:25:00,
2013-11-29 03:35:00,51.1,39.7,29.97,North,-999,0.0,0.0,65,0.00,,,-99.99,FreeWX-Wi 1.01,2013-11-29 11:35:00,
2013-11-29 03:45:00,51.1,39.7,29.97,North,-999,0.0,0.0,65,0.00,,,-99.99,FreeWX-Wi 1.01,2013-11-29 11:45:00,
2013-11-29 03:55:00,51.3,40.3,29.97,North,-999,0.0,0.0,66,0.00,,,-99.99,FreeWX-Wi 1.01,2013-11-29 11:55:00,
2013-11-29 04:05:00,51.4,40.5,29.97,North,-999,0.0,0.0,66,0.00,,,-99.99,FreeWX-Wi 1.01,2013-11-29 12:05:00,
2013-11-29 04:15:00,51.3,40.3,29.97,North,-999,0.0,0.0,66,0.00,,,-99.99,FreeWX-Wi 1.01,2013-11-29 12:15:00,
2013-11-29 04:25:00,51.1,40.5,29.97,North,-999,0.0,0.0,67,0.00,,,-99.99,FreeWX-Wi 1.01,2013-11-29 12:25:00,
2013-11-29 04:35:00,51.1,40.8,29.97,North,-999,0.0,0.0,68,0.00,,,-99.99,FreeWX-Wi 1.01,2013-11-29 12:35:00,
2013-11-29 04:45:00,50.9,40.6,29.97,North,-999,0.0,0.0,68,0.00,,,-99.99,FreeWX-Wi 1.01,2013-11-29 12:45:00,
2013-11-29 04:55:00,50.5,40.8,30.00,North,-999,0.0,0.0,69,0.00,,,-99.99,FreeWX-Wi 1.01,2013-11-29 12:55:00,
2013-11-29 05:05:00,50.4,40.6,30.00,North,-999,0.0,0.0,69,0.00,,,-99.99,FreeWX-Wi 1.01,2013-11-29 13:05:00,
2013-11-29 05:15:00,50.4,41.0,30.00,North,-999,0.0,0.0,70,0.00,,,-99.99,FreeWX-Wi 1.01,2013-11-29 13:15:00,
2013-11-29 05:25:00,50.4,41.0,30.00,North,-999,0.0,0.0,70,0.00,,,-99.99,FreeWX-Wi 1.01,2013-11-29 13:25:00,
2013-11-29 05:35:00,50.5,41.5,30.00,North,-999,0.0,0.0,71,0.00,,,-99.99,FreeWX-Wi 1.01,2013-11-29 13:35:00,
2013-11-29 05:45:00,50.4,41.7,30.00,North,-999,0.0,0.0,72,0.00,,,-99.99,FreeWX-Wi 1.01,2013-11-29 13:45:00,
2013-11-29 05:55:00,50.2,41.5,30.00,North,-999,0.0,0.0,72,0.00,,,-99.99,FreeWX-Wi 1.01,2013-11-29 13:55:00,
2013-11-29 06:05:00,50.0,41.4,30.00,North,-999,0.0,0.0,72,0.00,,,-99.99,FreeWX-Wi 1.01,2013-11-29 14:05:00,
2013-11-29 06:15:00,49.8,41.5,30.00,North,-999,0.0,0.0,73,0.00,,,-99.99,FreeWX-Wi 1.01,2013-11-29 14:15:00,
2013-11-29 06:25:00,49.8,41.9,30.00,North,-999,0.0,0.0,74,0.00,,,-99.99,FreeWX-Wi 1.01,2013-11-29 14:25:00,
2013-11-29 06:35:00,49.8,41.9,30.00,North,-999,0.0,0.0,74,0.00,,,-99.99,FreeWX-Wi 1.01,2013-11-29 14:35:00,
2013-11-29 06:45:00,49.8,41.9,30.00,North,-999,0.0,0.0,74,0.00,,,-99.99,FreeWX-Wi 1.01,2013-11-29 14:45:00,
2013-11-29 06:55:00,49.8,42.3,30.00,North,-999,0.0,0.0,75,0.00,,,-99.99,FreeWX-Wi 1.01,2013-11-29 14:55:00,
2013-11-29 07:05:00,49.6,42.1,30.00,North,-999,0.0,0.0,75,0.00,,,-99.99,FreeWX-Wi 1.01,2013-11-29 15:05:00,
2013-11-29 07:15:00,49.6,42.1,30.00,North,-999,0.0,0.0,75,0.00,,,-99.99,FreeWX-Wi 1.01,2013-11-29 15:15:00,
2013-11-29 07:25:00,49.8,42.6,30.00,North,-999,0.0,0.0,76,0.00,,,-99.99,FreeWX-Wi 1.01,2013-11-29 15:25:00,
2013-11-29 07:35:00,50.0,42.8,30.00,North,-999,0.0,0.0,76,0.00,,,-99.99,FreeWX-Wi 1.01,2013-11-29 15:35:00,
2013-11-29 07:45:00,50.4,43.3,30.00,North,-999,0.0,0.0,77,0.00,,,-99.99,FreeWX-Wi 1.01,2013-11-29 15:45:00,
2013-11-29 07:55:00,50.7,43.7,30.03,North,-999,0.0,0.0,77,0.00,,,-99.99,FreeWX-Wi 1.01,2013-11-29 15:55:00,
2013-11-29 08:05:00,51.1,44.4,30.03,North,-999,0.0,0.0,78,0.00,,,-99.99,FreeWX-Wi 1.01,2013-11-29 16:05:00,
2013-11-29 08:15:00,51.4,44.8,30.03,North,-999,0.0,0.0,78,0.00,,,-99.99,FreeWX-Wi 1.01,2013-11-29 16:15:00,
2013-11-29 08:25:00,52.5,46.2,30.03,North,-999,0.0,0.0,79,0.00,,,-99.99,FreeWX-Wi 1.01,2013-11-29 16:25:00,
2013-11-29 08:35:00,52.5,46.2,30.03,North,-999,0.0,0.0,79,0.00,,,-99.99,FreeWX-Wi 1.01,2013-11-29 16:35:00,
2013-11-29 08:45:00,53.1,47.1,30.03,North,-999,0.0,0.0,80,0.00,,,-99.99,FreeWX-Wi 1.01,2013-11-29 16:45:00,
2013-11-29 08:55:00,53.6,47.7,30.03,North,-999,0.0,0.0,80,0.00,,,-99.99,FreeWX-Wi 1.01,2013-11-29 16:55:00,
2013-11-29 09:05:00,54.1,48.0,30.03,North,-999,0.0,0.0,80,0.00,,,-99.99,FreeWX-Wi 1.01,2013-11-29 17:05:00,
2013-11-29 09:15:00,54.7,48.6,30.03,North,-999,0.0,0.0,80,0.00,,,-99.99,FreeWX-Wi 1.01,2013-11-29 17:15:00,
2013-11-29 09:25:00,55.0,48.6,30.03,North,-999,0.0,3.1,79,0.00,,,-99.99,FreeWX-Wi 1.01,2013-11-29 17:25:00,
2013-11-29 09:35:00,55.4,48.9,30.06,North,-999,0.0,0.0,79,0.00,,,-99.99,FreeWX-Wi 1.01,2013-11-29 17:35:00,
2013-11-29 09:45:00,55.9,49.1,30.06,North,-999,0.0,2.7,78,0.00,,,-99.99,FreeWX-Wi 1.01,2013-11-29 17:45:00,
2013-11-29 09:55:00,56.5,49.3,30.06,North,-999,0.0,0.0,77,0.00,,,-99.99,FreeWX-Wi 1.01,2013-11-29 17:55:00,
2013-11-29 10:05:00,56.7,48.4,30.06,North,-999,0.0,0.0,74,0.00,,,-99.99,FreeWX-Wi 1.01,2013-11-29 18:05:00,
2013-11-29 10:15:00,57.0,48.4,30.06,North,-999,0.0,0.0,73,0.00,,,-99.99,FreeWX-Wi 1.01,2013-11-29 18:15:00,
2013-11-29 10:25:00,57.4,48.0,30.06,North,-999,0.0,0.0,71,0.00,,,-99.99,FreeWX-Wi 1.01,2013-11-29 18:25:00,
2013-11-29 10:35:00,57.7,48.0,30.06,North,-999,0.0,0.0,70,0.00,,,-99.99,FreeWX-Wi 1.01,2013-11-29 18:35:00,
2013-11-29 10:45:00,58.1,46.8,30.06,North,-999,0.0,3.1,66,0.00,,,-99.99,FreeWX-Wi 1.01,2013-11-29 18:45:00,
2013-11-29 10:55:00,59.0,46.8,30.06,North,-999,0.0,2.7,64,0.00,,,-99.99,FreeWX-Wi 1.01,2013-11-29 18:55:00,
2013-11-29 11:05:00,59.5,46.6,30.03,North,-999,0.0,2.7,62,0.00,,,-99.99,FreeWX-Wi 1.01,2013-11-29 19:05:00,
2013-11-29 11:15:00,60.1,45.7,30.03,North,-999,0.0,3.1,59,0.00,,,-99.99,FreeWX-Wi 1.01,2013-11-29 19:15:00,
2013-11-29 11:25:00,61.9,47.5,30.03,North,-999,0.0,3.1,59,0.00,,,-99.99,FreeWX-Wi 1.01,2013-11-29 19:25:00,
2013-11-29 11:35:00,63.3,47.8,30.03,North,-999,0.0,4.9,57,0.00,,,-99.99,FreeWX-Wi 1.01,2013-11-29 19:35:00,
2013-11-29 11:45:00,64.4,46.4,30.03,North,-999,0.0,4.9,52,0.00,,,-99.99,FreeWX-Wi 1.01,2013-11-29 19:45:00,
2013-11-29 11:55:00,65.5,46.4,30.03,North,-999,0.0,4.0,50,0.00,,,-99.99,FreeWX-Wi 1.01,2013-11-29 19:55:00,
2013-11-29 12:05:00,66.2,45.9,30.03,North,-999,0.0,3.1,48,0.00,,,-99.99,FreeWX-Wi 1.01,2013-11-29 20:05:00,
2013-11-29 12:15:00,66.6,45.1,30.03,North,-999,0.0,4.0,46,0.00,,,-99.99,FreeWX-Wi 1.01,2013-11-29 20:15:00,
2013-11-29 12:25:00,66.7,44.1,30.00,North,-999,0.0,3.6,44,0.00,,,-99.99,FreeWX-Wi 1.01,2013-11-29 20:25:00,
2013-11-29 12:35:00,66.9,42.4,30.03,North,-999,0.0,3.6,41,0.00,,,-99.99,FreeWX-Wi 1.01,2013-11-29 20:35:00,
2013-11-29 12:45:00,66.9,41.7,30.03,North,-999,0.0,2.7,40,0.00,,,-99.99,FreeWX-Wi 1.01,2013-11-29 20:45:00,
2013-11-29 12:55:00,66.7,39.6,30.00,North,-999,0.0,4.9,37,0.00,,,-99.99,FreeWX-Wi 1.01,2013-11-29 20:55:00,
2013-11-29 13:05:00,66.0,39.0,30.00,North,-999,0.0,4.0,37,0.00,,,-99.99,FreeWX-Wi 1.01,2013-11-29 21:05:00,
2013-11-29 13:15:00,65.5,38.5,30.00,SSE,157,1.0,4.0,37,0.00,,,-99.99,FreeWX-Wi 1.01,2013-11-29 21:15:00,
2013-11-29 13:25:00,65.8,38.8,30.00,North,-999,0.0,2.7,37,0.00,,,-99.99,FreeWX-Wi 1.01,2013-11-29 21:25:00,
2013-11-29 13:35:00,65.7,38.7,30.00,North,-999,0.0,0.0,37,0.00,,,-99.99,FreeWX-Wi 1.01,2013-11-29 21:35:00,
2013-11-29 13:45:00,64.9,38.1,30.00,North,-999,0.0,6.3,37,0.00,,,-99.99,FreeWX-Wi 1.01,2013-11-29 21:45:00,
2013-11-29 13:55:00,64.9,39.4,30.00,East,93,1.0,5.8,39,0.00,,,-99.99,FreeWX-Wi 1.01,2013-11-29 21:55:00,
2013-11-29 14:05:00,64.8,41.2,29.97,ENE,66,2.0,4.9,42,0.00,,,-99.99,FreeWX-Wi 1.01,2013-11-29 22:05:00,
2013-11-29 14:15:00,64.4,42.6,29.97,NE,56,2.0,3.6,45,0.00,,,-99.99,FreeWX-Wi 1.01,2013-11-29 22:15:00,
2013-11-29 14:25:00,64.2,44.1,29.97,NE,39,1.0,4.0,48,0.00,,,-99.99,FreeWX-Wi 1.01,2013-11-29 22:25:00,
2013-11-29 14:35:00,64.8,45.1,29.97,NE,35,1.0,4.9,49,0.00,,,-99.99,FreeWX-Wi 1.01,2013-11-29 22:35:00,
2013-11-29 14:45:00,65.1,46.0,29.97,North,-999,0.0,0.0,50,0.00,,,-99.99,FreeWX-Wi 1.01,2013-11-29 22:45:00,
2013-11-29 14:55:00,64.9,44.2,29.97,North,-999,0.0,5.4,47,0.00,,,-99.99,FreeWX-Wi 1.01,2013-11-29 22:55:00,
2013-11-29 15:05:00,64.8,44.1,29.97,North,-999,0.0,5.4,47,0.00,,,-99.99,FreeWX-Wi 1.01,2013-11-29 23:05:00,
2013-11-29 15:15:00,64.6,43.9,29.97,NNW,340,1.0,4.5,47,0.00,,,-99.99,FreeWX-Wi 1.01,2013-11-29 23:15:00,
2013-11-29 15:25:00,64.2,45.7,30.00,NNW,337,1.0,5.8,51,0.00,,,-99.99,FreeWX-Wi 1.01,2013-11-29 23:25:00,
2013-11-29 15:35:00,63.5,46.0,30.00,North,353,2.0,5.8,53,0.00,,,-99.99,FreeWX-Wi 1.01,2013-11-29 23:35:00,
2013-11-29 15:45:00,63.0,46.6,30.00,North,4,2.0,5.4,55,0.00,,,-99.99,FreeWX-Wi 1.01,2013-11-29 23:45:00,
2013-11-29 15:55:00,62.4,46.6,30.00,North,7,2.0,6.3,56,0.00,,,-99.99,FreeWX-Wi 1.01,2013-11-29 23:55:00,
2013-11-29 16:05:00,62.1,47.1,30.00,North,0,1.0,5.4,58,0.00,,,-99.99,FreeWX-Wi 1.01,2013-11-30 00:05:00,
2013-11-29 16:15:00,61.5,48.0,30.00,North,357,1.0,6.3,61,0.00,,,-99.99,FreeWX-Wi 1.01,2013-11-30 00:15:00,
2013-11-29 16:25:00,59.9,48.0,30.00,NNW,344,2.0,10.5,65,0.00,,,-99.99,FreeWX-Wi 1.01,2013-11-30 00:25:00,
2013-11-29 16:35:00,58.5,48.0,30.00,NNW,334,3.0,8.7,68,0.00,,,-99.99,FreeWX-Wi 1.01,2013-11-30 00:35:00,
2013-11-29 16:45:00,57.9,47.8,30.00,NW,316,3.0,10.1,69,0.00,,,-99.99,FreeWX-Wi 1.01,2013-11-30 00:45:00,
2013-11-29 16:55:00,57.7,47.7,30.00,WNW,292,2.0,5.4,69,0.00,,,-99.99,FreeWX-Wi 1.01,2013-11-30 00:55:00,
2013-11-29 17:05:00,57.4,47.7,30.00,NW,306,1.0,4.5,70,0.00,,,-99.99,FreeWX-Wi 1.01,2013-11-30 01:05:00,
2013-11-29 17:15:00,57.2,47.5,30.00,North,-999,0.0,3.6,70,0.00,,,-99.99,FreeWX-Wi 1.01,2013-11-30 01:15:00,
2013-11-29 17:25:00,57.2,47.1,30.03,NNW,348,1.0,4.9,69,0.00,,,-99.99,FreeWX-Wi 1.01,2013-11-30 01:25:00,
2013-11-29 17:35:00,56.8,46.8,30.03,NNW,339,1.0,5.4,69,0.00,,,-99.99,FreeWX-Wi 1.01,2013-11-30 01:35:00,
2013-11-29 17:45:00,56.8,46.8,30.03,North,358,1.0,3.6,69,0.00,,,-99.99,FreeWX-Wi 1.01,2013-11-30 01:45:00,
2013-11-29 17:55:00,56.7,46.6,30.03,North,-999,0.0,3.6,69,0.00,,,-99.99,FreeWX-Wi 1.01,2013-11-30 01:55:00,
2013-11-29 18:05:00,56.5,46.8,30.03,North,-999,0.0,0.0,70,0.00,,,-99.99,FreeWX-Wi 1.01,2013-11-30 02:05:00,
2013-11-29 18:15:00,56.3,46.6,30.03,North,-999,0.0,3.1,70,0.00,,,-99.99,FreeWX-Wi 1.01,2013-11-30 02:15:00,
2013-11-29 18:25:00,56.3,46.6,30.03,North,-999,0.0,4.9,70,0.00,,,-99.99,FreeWX-Wi 1.01,2013-11-30 02:25:00,
2013-11-29 18:35:00,56.1,46.4,30.03,North,358,1.0,5.8,70,0.00,,,-99.99,FreeWX-Wi 1.01,2013-11-30 02:35:00,
2013-11-29 18:45:00,56.1,45.7,30.03,North,8,1.0,4.9,68,0.00,,,-99.99,FreeWX-Wi 1.01,2013-11-30 02:45:00,
2013-11-29 18:55:00,56.1,45.3,30.03,North,352,1.0,5.4,67,0.00,,,-99.99,FreeWX-Wi 1.01,2013-11-30 02:55:00,
2013-11-29 19:05:00,56.1,45.0,30.03,North,-999,0.0,4.0,66,0.00,,,-99.99,FreeWX-Wi 1.01,2013-11-30 03:05:00,
2013-11-29 19:15:00,56.1,45.0,30.03,North,-999,0.0,0.0,66,0.00,,,-99.99,FreeWX-Wi 1.01,2013-11-30 03:15:00,
2013-11-29 19:25:00,55.9,44.8,30.03,North,-999,0.0,0.0,66,0.00,,,-99.99,FreeWX-Wi 1.01,2013-11-30 03:25:00,
2013-11-29 19:35:00,55.9,44.4,30.03,North,-999,0.0,0.0,65,0.00,,,-99.99,FreeWX-Wi 1.01,2013-11-30 03:35:00,
2013-11-29 19:45:00,55.9,44.4,30.03,North,-999,0.0,0.0,65,0.00,,,-99.99,FreeWX-Wi 1.01,2013-11-30 03:45:00,
2013-11-29 19:55:00,55.8,44.2,30.06,North,-999,0.0,4.9,65,0.00,,,-99.99,FreeWX-Wi 1.01,2013-11-30 03:55:00,
2013-11-29 20:05:00,55.6,44.4,30.06,North,-999,0.0,4.0,66,0.00,,,-99.99,FreeWX-Wi 1.01,2013-11-30 04:05:00,
2013-11-29 20:15:00,55.6,45.5,30.06,NNE,15,1.0,4.9,69,0.00,,,-99.99,FreeWX-Wi 1.01,2013-11-30 04:15:00,
2013-11-29 20:25:00,55.4,45.9,30.06,North,3,1.0,4.0,70,0.00,,,-99.99,FreeWX-Wi 1.01,2013-11-30 04:25:00,
2013-11-29 20:35:00,55.4,46.2,30.06,North,-999,0.0,2.7,71,0.00,,,-99.99,FreeWX-Wi 1.01,2013-11-30 04:35:00,
2013-11-29 20:45:00,55.4,46.9,30.06,North,-999,0.0,5.8,73,0.00,,,-99.99,FreeWX-Wi 1.01,2013-11-30 04:45:00,
2013-11-29 20:55:00,55.0,46.9,30.06,North,-999,0.0,4.0,74,0.00,,,-99.99,FreeWX-Wi 1.01,2013-11-30 04:55:00,
2013-11-29 21:05:00,55.0,46.9,30.09,North,-999,0.0,0.0,74,0.00,,,-99.99,FreeWX-Wi 1.01,2013-11-30 05:05:00,
2013-11-29 21:15:00,55.0,46.9,30.09,North,-999,0.0,3.1,74,0.00,,,-99.99,FreeWX-Wi 1.01,2013-11-30 05:15:00,
2013-11-29 21:25:00,54.9,47.1,30.09,North,-999,0.0,4.9,75,0.00,,,-99.99,FreeWX-Wi 1.01,2013-11-30 05:25:00,
2013-11-29 21:35:00,54.7,47.3,30.09,North,-999,0.0,2.7,76,0.00,,,-99.99,FreeWX-Wi 1.01,2013-11-30 05:35:00,
2013-11-29 21:45:00,54.5,47.1,30.09,North,-999,0.0,0.0,76,0.00,,,-99.99,FreeWX-Wi 1.01,2013-11-30 05:45:00,
2013-11-29 21:55:00,54.5,46.8,30.09,North,-999,0.0,0.0,75,0.00,,,-99.99,FreeWX-Wi 1.01,2013-11-30 05:55:00,
2013-11-29 22:05:00,54.5,47.1,30.09,North,-999,0.0,0.0,76,0.00,,,-99.99,FreeWX-Wi 1.01,2013-11-30 06:05:00,
2013-11-29 22:15:00,54.5,47.1,30.09,North,-999,0.0,0.0,76,0.00,,,-99.99,FreeWX-Wi 1.01,2013-11-30 06:15:00,
2013-11-29 22:25:00,54.1,46.8,30.09,North,-999,0.0,0.0,76,0.00,,,-99.99,FreeWX-Wi 1.01,2013-11-30 06:25:00,
2013-11-29 22:35:00,54.1,47.1,30.09,North,-999,0.0,0.0,77,0.00,,,-99.99,FreeWX-Wi 1.01,2013-11-30 06:35:00,
2013-11-29 22:46:00,54.0,46.9,30.09,North,-999,0.0,0.0,77,0.00,,,-99.99,FreeWX-Wi 1.01,2013-11-30 06:46:00,
2013-11-29 22:56:00,54.0,46.9,30.09,North,-999,0.0,4.0,77,0.00,,,-99.99,FreeWX-Wi 1.01,2013-11-30 06:56:00,
2013-11-29 23:06:00,54.0,47.3,30.09,North,-999,0.0,3.6,78,0.00,,,-99.99,FreeWX-Wi 1.01,2013-11-30 07:06:00,
2013-11-29 23:16:00,53.8,47.1,30.09,North,-999,0.0,0.0,78,0.00,,,-99.99,FreeWX-Wi 1.01,2013-11-30 07:16:00,
2013-11-29 23:26:00,53.6,46.9,30.09,North,-999,0.0,0.0,78,0.00,,,-99.99,FreeWX-Wi 1.01,2013-11-30 07:26:00,
2013-11-29 23:36:00,53.2,46.9,30.09,North,-999,0.0,0.0,79,0.00,,,-99.99,FreeWX-Wi 1.01,2013-11-30 07:36:00,
2013-11-29 23:46:00,53.1,46.8,30.09,North,-999,0.0,0.0,79,0.00,,,-99.99,FreeWX-Wi 1.01,2013-11-30 07:46:00,
2013-11-29 23:56:00,53.1,47.1,30.09,North,-999,0.0,0.0,80,0.00,,,-99.99,FreeWX-Wi 1.01,2013-11-30 07:56:00,